createdAt,value
2019-02-28T00:00:19.504Z,53.50
2019-02-28T00:01:35.074Z,53.30
2019-02-28T00:02:48.294Z,53.10
2019-02-28T00:04:01.522Z,53.30
2019-02-28T00:05:14.735Z,53.20
2019-02-28T00:06:27.958Z,53.20
2019-02-28T00:07:41.187Z,53.30
2019-02-28T00:08:54.443Z,53.30
2019-02-28T00:10:09.800Z,53.20
2019-02-28T00:11:23.015Z,53.20
2019-02-28T00:12:36.248Z,53.00
2019-02-28T00:13:52.377Z,53.00
2019-02-28T00:15:06.761Z,53.60
2019-02-28T00:16:19.986Z,53.00
2019-02-28T00:17:33.205Z,53.10
2019-02-28T00:18:49.657Z,53.20
2019-02-28T00:20:01.700Z,53.20
2019-02-28T00:21:15.234Z,53.50
2019-02-28T00:22:28.445Z,53.60
2019-02-28T00:23:41.905Z,53.80
2019-02-28T00:24:56.257Z,53.80
2019-02-28T00:26:11.735Z,53.80
2019-02-28T00:27:24.410Z,53.80
2019-02-28T00:28:38.349Z,53.80
2019-02-28T00:29:51.560Z,53.80
2019-02-28T00:31:05.473Z,54.10
2019-02-28T00:32:21.351Z,54.20
2019-02-28T00:33:33.653Z,54.10
2019-02-28T00:34:47.602Z,54.50
2019-02-28T00:36:00.821Z,54.40
2019-02-28T00:37:14.060Z,54.50
2019-02-28T00:38:29.628Z,54.50
2019-02-28T00:39:42.289Z,54.50
2019-02-28T00:40:55.510Z,54.30
2019-02-28T00:42:08.733Z,54.20
2019-02-28T00:43:25.111Z,53.90
2019-02-28T00:44:37.618Z,54.10
2019-02-28T00:45:51.069Z,54.50
2019-02-28T00:47:04.276Z,54.00
2019-02-28T00:48:21.446Z,53.70
2019-02-28T00:49:33.866Z,53.90
2019-02-28T00:50:47.081Z,53.90
2019-02-28T00:52:01.623Z,54.10
2019-02-28T00:53:15.239Z,54.00
2019-02-28T00:54:28.470Z,53.70
2019-02-28T00:55:42.504Z,53.60
2019-02-28T00:56:57.345Z,53.70
2019-02-28T00:58:10.566Z,53.70
2019-02-28T00:59:23.862Z,53.50
2019-02-28T01:00:38.169Z,53.80
2019-02-28T01:01:51.471Z,54.00
2019-02-28T01:03:04.684Z,53.90
2019-02-28T01:04:17.918Z,53.80
2019-02-28T01:05:31.137Z,53.90
2019-02-28T01:06:44.377Z,53.70
2019-02-28T01:07:57.586Z,53.70
2019-02-28T01:09:10.805Z,53.60
2019-02-28T01:10:24.041Z,53.40
2019-02-28T01:11:37.994Z,53.20
2019-02-28T01:12:54.405Z,53.30
2019-02-28T01:14:06.154Z,53.40
2019-02-28T01:15:19.372Z,53.30
2019-02-28T01:16:32.585Z,53.40
2019-02-28T01:17:46.702Z,53.50
2019-02-28T01:18:59.921Z,53.60
2019-02-28T01:20:16.343Z,53.60
2019-02-28T01:21:28.330Z,53.30
2019-02-28T01:22:41.550Z,53.30
2019-02-28T01:23:54.766Z,53.30
2019-02-28T01:25:10.599Z,53.00
2019-02-28T01:26:23.863Z,53.30
2019-02-28T01:27:37.078Z,53.40
2019-02-28T01:28:50.300Z,53.20
2019-02-28T01:30:06.690Z,52.80
2019-02-28T01:31:18.925Z,52.80
2019-02-28T01:32:32.169Z,52.90
2019-02-28T01:33:45.391Z,53.00
2019-02-28T01:34:58.853Z,53.30
2019-02-28T01:36:12.185Z,53.60
2019-02-28T01:37:27.017Z,53.40
2019-02-28T01:38:40.239Z,53.20
2019-02-28T01:39:53.466Z,53.10
2019-02-28T01:41:08.283Z,53.30
2019-02-28T01:42:21.621Z,53.20
2019-02-28T01:43:34.833Z,53.50
2019-02-28T01:44:48.770Z,53.30
2019-02-28T01:46:01.993Z,53.30
2019-02-28T01:47:15.227Z,53.20
2019-02-28T01:48:28.438Z,53.20
2019-02-28T01:49:41.658Z,53.10
2019-02-28T01:50:54.877Z,53.30
2019-02-28T01:52:10.076Z,53.10
2019-02-28T01:53:23.052Z,53.30
2019-02-28T01:54:36.292Z,53.70
2019-02-28T01:55:49.518Z,53.50
2019-02-28T01:57:02.753Z,53.70
2019-02-28T01:58:16.877Z,53.90
2019-02-28T01:59:30.940Z,53.90
2019-02-28T02:00:44.181Z,53.70
2019-02-28T02:01:57.630Z,53.70
2019-02-28T02:03:13.566Z,53.40
2019-02-28T02:04:26.780Z,53.40
2019-02-28T02:05:39.993Z,53.30
2019-02-28T02:06:53.214Z,53.00
2019-02-28T02:08:07.453Z,53.20
2019-02-28T02:09:20.964Z,53.10
2019-02-28T02:10:34.189Z,53.00
2019-02-28T02:11:48.304Z,53.10
2019-02-28T02:13:03.140Z,53.30
2019-02-28T02:14:16.481Z,53.40
2019-02-28T02:15:29.954Z,53.60
2019-02-28T02:16:43.169Z,53.30
2019-02-28T02:17:56.394Z,53.10
2019-02-28T02:19:09.632Z,53.00
2019-02-28T02:20:23.416Z,53.00
2019-02-28T02:21:37.797Z,53.00
2019-02-28T02:22:51.252Z,52.90
2019-02-28T02:24:04.483Z,52.80
2019-02-28T02:25:17.706Z,52.90
2019-02-28T02:26:30.921Z,53.00
2019-02-28T02:27:44.387Z,52.80
2019-02-28T02:29:00.918Z,52.90
2019-02-28T02:30:16.545Z,52.90
2019-02-28T02:31:29.758Z,53.60
2019-02-28T02:32:42.975Z,53.50
2019-02-28T02:33:56.198Z,53.30
2019-02-28T02:35:09.485Z,53.30
2019-02-28T02:36:22.971Z,53.60
2019-02-28T02:37:36.197Z,53.30
2019-02-28T02:38:49.486Z,53.40
2019-02-28T02:40:03.116Z,53.60
2019-02-28T02:41:16.345Z,53.60
2019-02-28T02:42:29.809Z,53.60
2019-02-28T02:43:43.270Z,53.90
2019-02-28T02:44:56.714Z,53.70
2019-02-28T02:46:19.802Z,53.50
2019-02-28T02:47:31.302Z,53.80
2019-02-28T02:48:42.415Z,53.70
2019-02-28T02:49:57.778Z,53.40
2019-02-28T02:51:12.678Z,54.00
2019-02-28T02:52:30.150Z,53.70
2019-02-28T02:53:42.136Z,54.00
2019-02-28T02:54:55.849Z,54.10
2019-02-28T02:56:10.064Z,54.20
2019-02-28T02:57:23.274Z,53.70
2019-02-28T02:58:36.519Z,53.70
2019-02-28T02:59:49.734Z,53.80
2019-02-28T03:01:02.953Z,53.40
2019-02-28T03:02:16.877Z,53.40
2019-02-28T03:03:30.345Z,53.50
2019-02-28T03:04:43.573Z,53.90
2019-02-28T03:05:56.797Z,54.10
2019-02-28T03:07:10.257Z,54.60
2019-02-28T03:08:23.480Z,54.60
2019-02-28T03:09:36.756Z,54.70
2019-02-28T03:10:51.885Z,54.80
2019-02-28T03:12:04.920Z,54.80
2019-02-28T03:13:18.136Z,55.00
2019-02-28T03:14:31.365Z,55.30
2019-02-28T03:15:44.607Z,55.20
2019-02-28T03:16:57.823Z,54.90
2019-02-28T03:18:11.043Z,55.10
2019-02-28T03:19:33.103Z,55.10
2019-02-28T03:20:42.334Z,55.10
2019-02-28T03:21:56.001Z,55.30
2019-02-28T03:23:09.230Z,55.50
2019-02-28T03:24:22.433Z,55.60
2019-02-28T03:25:35.656Z,55.80
2019-02-28T03:26:49.118Z,55.90
2019-02-28T03:28:02.369Z,55.80
2019-02-28T03:29:15.583Z,55.60
2019-02-28T03:30:32.892Z,55.70
2019-02-28T03:31:55.010Z,56.10
2019-02-28T03:32:59.907Z,56.00
2019-02-28T03:34:14.276Z,56.00
2019-02-28T03:35:40.146Z,55.90
2019-02-28T03:36:43.653Z,56.20
2019-02-28T03:37:57.441Z,56.30
2019-02-28T03:39:10.683Z,56.10
2019-02-28T03:40:26.673Z,56.20
2019-02-28T03:41:39.889Z,56.20
2019-02-28T03:42:53.113Z,56.30
2019-02-28T03:44:06.345Z,56.30
2019-02-28T03:45:19.664Z,56.20
2019-02-28T03:46:32.878Z,56.30
2019-02-28T03:47:46.167Z,56.50
2019-02-28T03:48:59.626Z,56.60
2019-02-28T03:50:13.032Z,57.10
2019-02-28T03:51:28.410Z,56.90
2019-02-28T03:52:43.931Z,56.90
2019-02-28T03:53:56.923Z,57.30
2019-02-28T03:55:11.664Z,57.60
2019-02-28T03:56:24.906Z,57.30
2019-02-28T03:57:38.121Z,57.30
2019-02-28T03:58:51.342Z,57.50
2019-02-28T04:00:10.601Z,57.60
2019-02-28T04:01:23.858Z,57.40
2019-02-28T04:02:37.140Z,57.30
2019-02-28T04:03:50.398Z,57.20
2019-02-28T04:05:03.618Z,57.20
2019-02-28T04:06:16.843Z,57.50
2019-02-28T04:07:30.086Z,57.60
2019-02-28T04:08:43.603Z,57.60
2019-02-28T04:09:56.832Z,57.80
2019-02-28T04:11:10.042Z,58.20
2019-02-28T04:12:23.297Z,58.30
2019-02-28T04:13:36.594Z,58.20
2019-02-28T04:14:49.810Z,58.30
2019-02-28T04:16:09.192Z,58.80
2019-02-28T04:17:18.045Z,58.50
2019-02-28T04:18:31.263Z,58.60
2019-02-28T04:19:44.496Z,58.60
2019-02-28T04:20:57.726Z,58.40
2019-02-28T04:22:10.940Z,58.40
2019-02-28T04:23:24.388Z,58.40
2019-02-28T04:24:37.620Z,58.30
2019-02-28T04:25:50.845Z,58.30
2019-02-28T04:27:06.964Z,58.30
2019-02-28T04:28:19.197Z,58.30
2019-02-28T04:29:32.418Z,58.40
2019-02-28T04:30:45.638Z,58.40
2019-02-28T04:31:59.095Z,58.60
2019-02-28T04:33:12.314Z,58.20
2019-02-28T04:34:25.543Z,58.10
2019-02-28T04:35:38.773Z,58.00
2019-02-28T04:36:52.229Z,58.00
2019-02-28T04:38:05.458Z,58.20
2019-02-28T04:39:19.138Z,58.20
2019-02-28T04:40:32.817Z,58.20
2019-02-28T04:41:46.056Z,58.40
2019-02-28T04:42:59.280Z,58.30
2019-02-28T04:44:15.360Z,58.40
2019-02-28T04:45:27.694Z,58.30
2019-02-28T04:46:40.901Z,58.30
2019-02-28T04:47:54.128Z,58.30
2019-02-28T04:49:07.805Z,58.40
2019-02-28T04:50:21.022Z,58.60
2019-02-28T04:51:37.090Z,59.00
2019-02-28T04:52:49.671Z,58.70
2019-02-28T04:54:04.457Z,58.80
2019-02-28T04:55:17.682Z,58.70
2019-02-28T04:56:31.361Z,58.40
2019-02-28T04:57:44.589Z,58.30
2019-02-28T04:58:59.694Z,58.30
2019-02-28T05:00:17.312Z,58.50
2019-02-28T05:01:30.543Z,58.70
2019-02-28T05:02:43.794Z,58.70
2019-02-28T05:03:59.130Z,58.80
2019-02-28T05:05:13.399Z,58.70
2019-02-28T05:06:26.902Z,58.40
2019-02-28T05:07:40.116Z,58.00
2019-02-28T05:08:53.577Z,58.30
2019-02-28T05:10:08.446Z,58.20
2019-02-28T05:11:21.914Z,58.20
2019-02-28T05:12:36.244Z,58.10
2019-02-28T05:13:50.078Z,58.00
2019-02-28T05:15:04.178Z,58.30
2019-02-28T05:16:17.404Z,58.40
2019-02-28T05:17:30.626Z,58.30
2019-02-28T05:18:43.842Z,58.50
2019-02-28T05:19:57.060Z,58.50
2019-02-28T05:21:10.534Z,58.40
2019-02-28T05:22:27.568Z,58.40
2019-02-28T05:23:39.973Z,58.30
2019-02-28T05:24:53.206Z,58.20
2019-02-28T05:26:06.425Z,57.90
2019-02-28T05:27:19.647Z,57.90
2019-02-28T05:28:32.872Z,57.70
2019-02-28T05:29:46.150Z,57.70
2019-02-28T05:30:59.437Z,57.80
2019-02-28T05:32:12.678Z,57.90
2019-02-28T05:33:25.914Z,58.30
2019-02-28T05:34:39.128Z,58.30
2019-02-28T05:35:52.372Z,58.50
2019-02-28T05:37:05.642Z,57.90
2019-02-28T05:38:21.216Z,57.70
2019-02-28T05:39:33.822Z,57.70
2019-02-28T05:40:47.037Z,57.50
2019-02-28T05:42:00.269Z,57.50
2019-02-28T05:43:13.505Z,57.40
2019-02-28T05:44:26.725Z,57.20
2019-02-28T05:45:40.089Z,57.20
2019-02-28T05:46:57.522Z,57.20
2019-02-28T05:48:09.878Z,57.50
2019-02-28T05:49:23.110Z,57.40
2019-02-28T05:50:36.332Z,57.30
2019-02-28T05:51:52.493Z,57.30
2019-02-28T05:53:09.340Z,57.40
2019-02-28T05:54:23.017Z,57.50
2019-02-28T05:55:36.230Z,57.40
2019-02-28T05:56:52.176Z,57.30
2019-02-28T05:58:05.400Z,57.30
2019-02-28T05:59:26.010Z,57.50
2019-02-28T06:00:37.691Z,57.50
2019-02-28T06:01:52.641Z,57.40
2019-02-28T06:03:05.861Z,57.40
2019-02-28T06:04:20.717Z,57.40
2019-02-28T06:05:33.932Z,57.50
2019-02-28T06:06:47.157Z,57.50
2019-02-28T06:08:03.757Z,57.50
2019-02-28T06:09:17.666Z,57.50
2019-02-28T06:10:32.513Z,57.40
2019-02-28T06:11:51.277Z,57.30
2019-02-28T06:13:04.493Z,57.10
2019-02-28T06:14:18.206Z,57.20
2019-02-28T06:15:34.233Z,57.10
2019-02-28T06:16:50.945Z,56.90
2019-02-28T06:18:04.165Z,56.60
2019-02-28T06:19:17.394Z,56.60
2019-02-28T06:20:33.145Z,56.50
2019-02-28T06:21:46.364Z,56.30
2019-02-28T06:23:01.153Z,56.30
2019-02-28T06:24:14.378Z,56.10
2019-02-28T06:25:27.613Z,55.90
2019-02-28T06:26:42.444Z,55.60
2019-02-28T06:27:55.671Z,55.40
2019-02-28T06:29:10.281Z,55.20
2019-02-28T06:30:27.752Z,54.90
2019-02-28T06:31:45.488Z,54.60
2019-02-28T06:32:59.794Z,54.40
2019-02-28T06:34:13.013Z,54.30
2019-02-28T06:35:29.133Z,54.20
2019-02-28T06:36:42.350Z,54.00
2019-02-28T06:37:55.846Z,53.80
2019-02-28T06:39:09.065Z,53.60
2019-02-28T06:40:25.935Z,53.50
2019-02-28T06:41:43.210Z,53.40
2019-02-28T06:43:18.814Z,53.20
2019-02-28T06:44:33.809Z,53.00
2019-02-28T06:45:50.633Z,53.50
2019-02-28T06:48:39.349Z,52.80
2019-02-28T06:48:42.348Z,53.00
2019-02-28T06:50:04.564Z,52.60
2019-02-28T06:51:23.189Z,52.40
2019-02-28T06:52:50.357Z,52.70
2019-02-28T06:54:12.375Z,51.90
2019-02-28T06:55:32.334Z,51.80
2019-02-28T06:56:58.688Z,51.60
2019-02-28T06:58:14.423Z,51.20
2019-02-28T06:59:27.425Z,51.10
2019-02-28T07:00:44.178Z,50.90
2019-02-28T07:02:22.531Z,50.80
2019-02-28T07:03:31.642Z,50.40
2019-02-28T07:04:45.493Z,50.30
2019-02-28T07:06:01.023Z,50.20
2019-02-28T07:07:14.770Z,50.10
2019-02-28T07:08:28.976Z,49.90
2019-02-28T07:09:42.293Z,49.70
2019-02-28T07:10:55.510Z,49.50
2019-02-28T07:12:09.920Z,49.50
2019-02-28T07:13:23.339Z,49.30
2019-02-28T07:14:36.777Z,49.20
2019-02-28T07:15:50.268Z,49.00
2019-02-28T07:17:03.515Z,48.70
2019-02-28T07:18:18.865Z,48.50
2019-02-28T07:19:31.961Z,48.20
2019-02-28T07:20:47.154Z,48.40
2019-02-28T07:22:00.152Z,48.30
2019-02-28T07:23:13.408Z,48.20
2019-02-28T07:24:26.642Z,48.00
2019-02-28T07:25:39.856Z,48.00
2019-02-28T07:26:54.026Z,47.60
2019-02-28T07:28:07.268Z,47.50
2019-02-28T07:29:20.537Z,47.50
2019-02-28T07:30:34.014Z,47.40
2019-02-28T07:31:47.253Z,47.00
2019-02-28T07:33:00.513Z,46.80
2019-02-28T07:34:16.761Z,46.70
2019-02-28T07:35:32.876Z,46.50
2019-02-28T07:36:44.839Z,46.50
2019-02-28T07:37:58.855Z,46.40
2019-02-28T07:39:12.085Z,46.50
2019-02-28T07:40:28.105Z,46.40
2019-02-28T07:41:42.958Z,46.20
2019-02-28T07:42:56.180Z,45.90
2019-02-28T07:44:09.431Z,45.70
2019-02-28T07:45:22.651Z,45.80
2019-02-28T07:46:38.774Z,46.30
2019-02-28T07:47:54.538Z,45.60
2019-02-28T07:49:35.559Z,45.70
2019-02-28T07:50:35.604Z,45.40
2019-02-28T07:51:49.065Z,45.40
2019-02-28T07:53:02.298Z,45.40
2019-02-28T07:54:15.875Z,45.30
2019-02-28T07:55:30.532Z,45.10
2019-02-28T07:56:44.397Z,44.80
2019-02-28T07:57:57.651Z,45.00
2019-02-28T07:59:10.883Z,45.00
2019-02-28T08:00:24.868Z,44.90
2019-02-28T08:01:38.153Z,45.00
2019-02-28T08:02:51.378Z,44.60
2019-02-28T08:04:04.625Z,44.40
2019-02-28T08:05:17.850Z,44.40
2019-02-28T08:06:40.501Z,44.30
2019-02-28T08:08:11.378Z,44.00
2019-02-28T08:09:21.959Z,44.10
2019-02-28T08:10:35.275Z,43.70
2019-02-28T08:11:51.651Z,43.80
2019-02-28T08:13:04.073Z,43.50
2019-02-28T08:14:17.430Z,43.30
2019-02-28T08:15:31.010Z,42.80
2019-02-28T08:16:44.237Z,42.60
2019-02-28T08:17:57.469Z,42.70
2019-02-28T08:19:10.710Z,42.40
2019-02-28T08:20:23.958Z,42.40
2019-02-28T08:21:37.185Z,42.10
2019-02-28T08:22:50.418Z,41.90
2019-02-28T08:24:05.341Z,41.70
2019-02-28T08:25:19.380Z,41.50
2019-02-28T08:26:32.610Z,41.20
2019-02-28T08:27:47.880Z,41.30
2019-02-28T08:29:00.789Z,41.10
2019-02-28T08:30:19.428Z,40.90
2019-02-28T08:31:32.032Z,41.10
2019-02-28T08:32:47.726Z,40.70
2019-02-28T08:34:01.769Z,40.60
2019-02-28T08:35:16.112Z,40.40
2019-02-28T08:36:29.338Z,40.60
2019-02-28T08:37:42.560Z,40.20
2019-02-28T08:38:55.793Z,39.90
2019-02-28T08:40:12.589Z,40.00
2019-02-28T08:41:26.981Z,39.80
2019-02-28T08:42:40.227Z,39.80
2019-02-28T08:43:53.450Z,39.60
2019-02-28T08:45:10.915Z,39.60
2019-02-28T08:46:24.231Z,39.90
2019-02-28T08:47:38.182Z,39.60
2019-02-28T08:48:52.605Z,39.60
2019-02-28T08:50:11.508Z,39.30
2019-02-28T08:51:27.773Z,39.00
2019-02-28T08:52:41.217Z,38.90
2019-02-28T08:53:54.650Z,38.70
2019-02-28T08:55:10.616Z,38.50
2019-02-28T08:56:23.861Z,38.30
2019-02-28T08:57:37.087Z,38.50
2019-02-28T08:58:50.326Z,38.30
2019-02-28T09:00:04.419Z,38.30
2019-02-28T09:01:17.657Z,37.70
2019-02-28T09:02:30.913Z,37.70
2019-02-28T09:03:44.147Z,37.60
2019-02-28T09:04:57.386Z,37.60
2019-02-28T09:06:10.608Z,37.70
2019-02-28T09:07:23.842Z,37.10
2019-02-28T09:08:37.100Z,37.50
2019-02-28T09:09:50.325Z,37.70
2019-02-28T09:11:03.549Z,37.20
2019-02-28T09:12:16.780Z,37.30
2019-02-28T09:13:29.997Z,36.80
2019-02-28T09:14:43.251Z,37.20
2019-02-28T09:15:56.488Z,36.90
2019-02-28T09:17:09.720Z,36.90
2019-02-28T09:18:22.953Z,36.60
2019-02-28T09:19:36.933Z,36.70
2019-02-28T09:20:50.353Z,36.80
2019-02-28T09:22:03.585Z,37.50
2019-02-28T09:23:16.830Z,36.80
2019-02-28T09:24:30.062Z,36.30
2019-02-28T09:25:43.305Z,36.50
2019-02-28T09:26:56.550Z,36.10
2019-02-28T09:28:10.218Z,36.10
2019-02-28T09:29:28.773Z,35.60
2019-02-28T09:30:44.196Z,36.00
2019-02-28T09:31:57.441Z,35.80
2019-02-28T09:33:10.674Z,35.70
2019-02-28T09:34:23.906Z,35.80
2019-02-28T09:35:38.321Z,35.90
2019-02-28T09:36:55.446Z,35.40
2019-02-28T09:38:12.393Z,35.60
2019-02-28T09:39:21.527Z,35.00
2019-02-28T09:40:34.764Z,35.30
2019-02-28T09:41:47.983Z,34.90
2019-02-28T09:43:01.210Z,34.00
2019-02-28T09:44:15.150Z,33.60
2019-02-28T09:45:30.013Z,33.90
2019-02-28T09:46:43.718Z,33.80
2019-02-28T09:48:00.788Z,33.40
2019-02-28T09:49:13.069Z,32.80
2019-02-28T09:50:28.561Z,33.10
2019-02-28T09:51:42.551Z,33.40
2019-02-28T09:52:55.858Z,33.20
2019-02-28T09:54:09.796Z,33.00
2019-02-28T09:55:23.046Z,32.50
2019-02-28T09:56:36.277Z,32.90
2019-02-28T09:57:53.825Z,32.70
2019-02-28T09:59:04.469Z,32.60
2019-02-28T10:00:21.746Z,31.30
2019-02-28T10:01:34.999Z,31.40
2019-02-28T10:02:48.230Z,31.50
2019-02-28T10:04:01.481Z,31.60
2019-02-28T10:05:14.710Z,31.10
2019-02-28T10:06:27.948Z,31.30
2019-02-28T10:07:41.196Z,31.20
2019-02-28T10:08:54.421Z,31.40
2019-02-28T10:10:13.748Z,30.90
2019-02-28T10:11:31.410Z,31.20
2019-02-28T10:12:43.089Z,31.00
2019-02-28T10:13:55.558Z,31.20
2019-02-28T10:15:14.225Z,30.60
2019-02-28T10:16:27.453Z,30.90
2019-02-28T10:17:42.188Z,30.80
2019-02-28T10:18:55.593Z,30.80
2019-02-28T10:20:16.370Z,30.50
2019-02-28T10:21:29.505Z,30.60
2019-02-28T10:22:44.405Z,30.70
2019-02-28T10:23:57.942Z,30.70
2019-02-28T10:25:11.941Z,29.70
2019-02-28T10:26:25.173Z,29.70
2019-02-28T10:27:38.400Z,30.00
2019-02-28T10:28:51.634Z,30.00
2019-02-28T10:30:15.522Z,29.90
2019-02-28T10:31:36.326Z,30.00
2019-02-28T10:32:43.313Z,30.20
2019-02-28T10:33:55.477Z,29.50
2019-02-28T10:35:08.771Z,29.90
2019-02-28T10:36:21.993Z,30.00
2019-02-28T10:37:35.765Z,29.80
2019-02-28T10:38:49.046Z,29.90
2019-02-28T10:40:02.271Z,30.10
2019-02-28T10:41:15.535Z,30.20
2019-02-28T10:42:28.822Z,29.90
2019-02-28T10:43:42.069Z,29.80
2019-02-28T10:44:55.301Z,29.80
2019-02-28T10:46:08.528Z,29.70
2019-02-28T10:47:21.753Z,29.70
2019-02-28T10:48:35.269Z,29.90
2019-02-28T10:49:49.969Z,29.90
2019-02-28T10:51:12.903Z,29.60
2019-02-28T10:52:18.149Z,29.90
2019-02-28T10:53:31.373Z,30.10
2019-02-28T10:54:48.420Z,30.20
2019-02-28T10:55:59.561Z,30.10
2019-02-28T10:57:12.792Z,30.30
2019-02-28T10:58:26.044Z,30.40
2019-02-28T10:59:39.338Z,30.50
2019-02-28T11:00:52.585Z,30.70
2019-02-28T11:02:05.814Z,30.30
2019-02-28T11:03:19.044Z,29.80
2019-02-28T11:04:32.282Z,30.00
2019-02-28T11:05:46.091Z,30.10
2019-02-28T11:07:02.077Z,30.30
2019-02-28T11:08:18.905Z,30.30
2019-02-28T11:09:31.157Z,30.40
2019-02-28T11:10:45.829Z,30.50
2019-02-28T11:11:59.064Z,31.40
2019-02-28T11:13:20.627Z,30.80
2019-02-28T11:14:35.450Z,30.20
2019-02-28T11:15:49.526Z,30.00
2019-02-28T11:17:02.798Z,30.10
2019-02-28T11:18:16.024Z,30.30
2019-02-28T11:19:30.171Z,31.10
2019-02-28T11:20:43.404Z,30.30
2019-02-28T11:21:56.638Z,29.90
2019-02-28T11:23:14.223Z,30.00
2019-02-28T11:24:27.008Z,30.10
2019-02-28T11:25:39.981Z,29.90
2019-02-28T11:26:53.202Z,29.50
2019-02-28T11:28:06.432Z,29.40
2019-02-28T11:29:19.653Z,29.80
2019-02-28T11:30:33.298Z,29.30
2019-02-28T11:31:46.581Z,29.40
2019-02-28T11:33:03.086Z,29.40
2019-02-28T11:34:15.013Z,29.10
2019-02-28T11:35:29.914Z,29.20
2019-02-28T11:36:44.768Z,29.20
2019-02-28T11:37:58.089Z,29.10
2019-02-28T11:39:12.165Z,29.40
2019-02-28T11:40:27.990Z,29.60
2019-02-28T11:41:41.218Z,30.00
2019-02-28T11:42:54.437Z,29.80
2019-02-28T11:44:09.302Z,28.90
2019-02-28T11:45:25.734Z,28.40
2019-02-28T11:46:38.950Z,28.40
2019-02-28T11:47:53.412Z,28.50
2019-02-28T11:49:06.689Z,28.00
2019-02-28T11:50:19.924Z,27.90
2019-02-28T11:51:33.152Z,27.90
2019-02-28T11:52:46.425Z,27.80
2019-02-28T11:53:59.654Z,27.80
2019-02-28T11:55:16.871Z,27.40
2019-02-28T11:56:29.521Z,27.40
2019-02-28T11:57:42.777Z,27.00
2019-02-28T11:58:56.013Z,27.00
2019-02-28T12:00:27.509Z,26.40
2019-02-28T12:01:42.424Z,25.70
2019-02-28T12:02:59.889Z,24.80
2019-02-28T12:04:10.928Z,24.10
2019-02-28T12:05:24.161Z,23.60
2019-02-28T12:06:37.397Z,23.40
2019-02-28T12:07:50.621Z,23.00
2019-02-28T12:09:04.289Z,23.30
2019-02-28T12:10:17.592Z,22.60
2019-02-28T12:11:33.543Z,22.60
2019-02-28T12:12:45.774Z,22.60
2019-02-28T12:13:59.002Z,22.80
2019-02-28T12:15:14.774Z,23.10
2019-02-28T12:16:28.011Z,23.20
2019-02-28T12:17:41.244Z,23.10
2019-02-28T12:18:54.482Z,23.00
2019-02-28T12:20:10.352Z,23.00
2019-02-28T12:21:23.578Z,23.20
2019-02-28T12:22:36.872Z,23.50
2019-02-28T12:23:50.090Z,23.30
2019-02-28T12:25:04.499Z,23.00
2019-02-28T12:26:21.023Z,23.50
2019-02-28T12:27:34.085Z,23.20
2019-02-28T12:28:47.321Z,22.90
2019-02-28T12:30:01.758Z,22.90
2019-02-28T12:31:15.008Z,22.70
2019-02-28T12:32:28.217Z,22.60
2019-02-28T12:33:41.476Z,22.70
2019-02-28T12:34:54.711Z,22.60
2019-02-28T12:36:07.932Z,22.80
2019-02-28T12:37:22.118Z,23.50
2019-02-28T12:38:36.280Z,23.80
2019-02-28T12:39:49.518Z,23.00
2019-02-28T12:41:02.746Z,22.90
2019-02-28T12:42:15.981Z,22.20
2019-02-28T12:43:29.213Z,21.90
2019-02-28T12:44:42.469Z,22.10
2019-02-28T12:45:56.850Z,22.00
2019-02-28T12:47:10.725Z,22.20
2019-02-28T12:48:23.953Z,22.20
2019-02-28T12:49:37.193Z,22.20
2019-02-28T12:50:50.425Z,22.30
2019-02-28T12:52:03.649Z,22.80
2019-02-28T12:53:16.891Z,22.40
2019-02-28T12:54:30.402Z,21.80
2019-02-28T12:55:45.070Z,21.80
2019-02-28T12:56:58.317Z,21.60
2019-02-28T12:58:11.562Z,22.00
2019-02-28T12:59:24.799Z,22.20
2019-02-28T13:00:39.493Z,22.70
2019-02-28T13:01:52.797Z,22.60
2019-02-28T13:03:06.057Z,22.10
2019-02-28T13:04:19.344Z,21.90
2019-02-28T13:05:32.672Z,21.90
2019-02-28T13:06:45.944Z,21.10
2019-02-28T13:07:59.213Z,20.90
2019-02-28T13:09:13.658Z,21.80
2019-02-28T13:10:28.608Z,21.90
2019-02-28T13:11:42.786Z,21.90
2019-02-28T13:13:05.778Z,22.30
2019-02-28T13:14:11.440Z,21.80
2019-02-28T13:15:25.349Z,21.40
2019-02-28T13:16:38.581Z,21.60
2019-02-28T13:17:51.833Z,21.60
2019-02-28T13:19:05.056Z,21.20
2019-02-28T13:20:32.246Z,21.80
2019-02-28T13:21:43.582Z,21.70
2019-02-28T13:22:59.531Z,22.00
2019-02-28T13:24:11.336Z,22.30
2019-02-28T13:25:24.904Z,22.40
2019-02-28T13:26:38.137Z,22.10
2019-02-28T13:27:51.373Z,22.00
2019-02-28T13:29:04.664Z,22.20
2019-02-28T13:30:20.523Z,21.90
2019-02-28T13:31:35.505Z,21.90
2019-02-28T13:32:48.704Z,22.40
2019-02-28T13:34:01.940Z,22.80
2019-02-28T13:35:23.472Z,23.00
2019-02-28T13:36:36.717Z,22.90
2019-02-28T13:37:49.947Z,23.20
2019-02-28T13:39:04.354Z,22.70
2019-02-28T13:40:17.593Z,22.80
2019-02-28T13:41:30.893Z,23.40
2019-02-28T13:42:44.120Z,22.20
2019-02-28T13:43:59.304Z,22.20
2019-02-28T13:45:19.338Z,22.20
2019-02-28T13:46:33.957Z,22.10
2019-02-28T13:47:46.446Z,21.20
2019-02-28T13:48:59.021Z,20.60
2019-02-28T13:50:17.444Z,20.40
2019-02-28T13:51:32.589Z,20.40
2019-02-28T13:52:45.670Z,20.80
2019-02-28T13:53:58.910Z,21.40
2019-02-28T13:55:14.213Z,21.40
2019-02-28T13:56:32.711Z,21.90
2019-02-28T13:57:46.751Z,21.00
2019-02-28T13:58:58.838Z,20.60
2019-02-28T14:00:27.845Z,20.50
2019-02-28T14:01:41.086Z,20.70
2019-02-28T14:02:55.947Z,20.90
2019-02-28T14:04:09.181Z,20.80
2019-02-28T14:05:22.424Z,20.50
2019-02-28T14:06:35.657Z,20.40
2019-02-28T14:07:48.895Z,20.20
2019-02-28T14:09:02.126Z,20.10
2019-02-28T14:10:16.510Z,19.80
2019-02-28T14:11:30.117Z,19.70
2019-02-28T14:12:43.338Z,20.70
2019-02-28T14:13:56.561Z,22.40
2019-02-28T14:15:15.517Z,23.60
2019-02-28T14:16:27.670Z,23.90
2019-02-28T14:17:40.872Z,23.40
2019-02-28T14:18:54.753Z,22.40
2019-02-28T14:20:10.241Z,22.00
2019-02-28T14:21:23.477Z,21.90
2019-02-28T14:22:36.710Z,22.70
2019-02-28T14:23:52.490Z,22.90
2019-02-28T14:25:07.329Z,23.00
2019-02-28T14:26:20.572Z,23.10
2019-02-28T14:27:33.808Z,23.30
2019-02-28T14:28:47.050Z,23.50
2019-02-28T14:30:00.283Z,23.50
2019-02-28T14:31:13.522Z,23.60
2019-02-28T14:32:26.762Z,23.80
2019-02-28T14:33:39.997Z,24.10
2019-02-28T14:34:53.217Z,23.80
2019-02-28T14:36:07.375Z,24.30
2019-02-28T14:37:21.489Z,24.30
2019-02-28T14:38:34.728Z,24.30
2019-02-28T14:39:48.190Z,24.20
2019-02-28T14:41:01.426Z,24.00
2019-02-28T14:42:14.746Z,24.20
2019-02-28T14:43:27.982Z,23.90
2019-02-28T14:44:41.219Z,23.70
2019-02-28T14:45:56.069Z,23.40
2019-02-28T14:47:09.305Z,23.50
2019-02-28T14:48:22.549Z,24.00
2019-02-28T14:49:35.840Z,24.20
2019-02-28T14:50:50.703Z,24.50
2019-02-28T14:52:04.431Z,25.00
2019-02-28T14:53:17.745Z,25.30
2019-02-28T14:54:30.975Z,25.70
2019-02-28T14:55:44.206Z,26.20
2019-02-28T14:56:57.433Z,26.60
2019-02-28T14:58:10.669Z,27.10
2019-02-28T14:59:23.905Z,27.30
2019-02-28T15:00:39.136Z,27.40
2019-02-28T15:01:53.186Z,27.70
2019-02-28T15:03:07.509Z,28.00
2019-02-28T15:04:20.757Z,27.90
2019-02-28T15:05:42.316Z,28.40
2019-02-28T15:06:55.548Z,28.70
2019-02-28T15:08:11.774Z,28.90
2019-02-28T15:09:24.193Z,28.70
2019-02-28T15:10:38.776Z,28.80
2019-02-28T15:11:52.568Z,28.80
2019-02-28T15:13:05.812Z,28.90
2019-02-28T15:14:19.050Z,28.80
2019-02-28T15:15:32.278Z,28.60
2019-02-28T15:16:45.513Z,27.90
2019-02-28T15:17:58.748Z,27.60
2019-02-28T15:19:12.049Z,27.30
2019-02-28T15:20:25.287Z,26.70
2019-02-28T15:21:42.257Z,26.40
2019-02-28T15:22:55.705Z,26.30
2019-02-28T15:24:09.535Z,26.00
2019-02-28T15:25:24.465Z,25.80
2019-02-28T15:26:37.695Z,26.10
2019-02-28T15:27:50.930Z,26.30
2019-02-28T15:29:04.163Z,26.80
2019-02-28T15:30:23.148Z,27.30
2019-02-28T15:31:36.381Z,27.60
2019-02-28T15:32:50.720Z,27.50
2019-02-28T15:34:05.428Z,27.40
2019-02-28T15:35:21.924Z,27.40
2019-02-28T15:36:35.158Z,27.90
2019-02-28T15:37:48.401Z,27.90
2019-02-28T15:39:01.641Z,27.90
2019-02-28T15:40:24.642Z,28.20
2019-02-28T15:41:38.738Z,28.40
2019-02-28T15:42:51.962Z,28.50
2019-02-28T15:44:05.197Z,28.60
2019-02-28T15:45:18.434Z,28.60
2019-02-28T15:46:31.673Z,28.60
2019-02-28T15:47:44.886Z,28.90
2019-02-28T15:48:58.121Z,29.20
2019-02-28T15:50:17.094Z,29.20
2019-02-28T15:51:30.404Z,29.50
2019-02-28T15:52:43.644Z,29.60
2019-02-28T15:53:56.878Z,29.40
2019-02-28T15:55:12.626Z,29.30